createdAt,value
2022-10-02T00:01:20.078Z,98819.09
2022-10-02T00:06:26.212Z,98825.75
2022-10-02T00:11:43.652Z,98832.84
2022-10-02T00:16:51.591Z,98841.84
2022-10-02T00:22:22.431Z,98853.03
2022-10-02T00:27:40.278Z,98855.22
2022-10-02T00:32:57.899Z,98867.75
2022-10-02T00:38:09.890Z,98863.53
2022-10-02T00:43:28.076Z,98864.19
2022-10-02T00:48:59.900Z,98870.47
2022-10-02T00:54:18.316Z,98870.03
2022-10-02T00:59:35.419Z,98881.34
2022-10-02T01:04:40.500Z,98881.56
2022-10-02T01:09:44.062Z,98888.69
2022-10-02T01:14:47.086Z,98892.50
2022-10-02T01:19:51.984Z,98901.75
2022-10-02T01:24:57.723Z,98918.75
2022-10-02T01:30:03.769Z,98910.31
2022-10-02T01:35:07.912Z,98924.44
2022-10-02T01:40:24.898Z,98925.03
2022-10-02T01:45:44.669Z,98926.06
2022-10-02T01:50:55.919Z,98932.16
2022-10-02T01:56:08.159Z,98935.97
2022-10-02T02:01:22.986Z,98937.19
2022-10-02T02:06:31.197Z,98943.69
2022-10-02T02:11:37.049Z,98948.31
2022-10-02T02:16:43.668Z,98952.16
2022-10-02T02:21:52.053Z,98954.56
2022-10-02T02:27:00.403Z,98956.06
2022-10-02T02:32:09.500Z,98955.94
2022-10-02T02:37:19.175Z,98959.75
2022-10-02T02:42:26.725Z,98955.63
2022-10-02T02:47:35.586Z,98962.16
2022-10-02T02:52:43.578Z,98960.19
2022-10-02T02:57:53.712Z,98958.78
2022-10-02T03:02:56.762Z,98963.16
2022-10-02T03:08:04.571Z,98970.22
2022-10-02T03:13:23.565Z,98976.94
2022-10-02T03:18:40.463Z,98975.25
2022-10-02T03:23:57.001Z,98987.16
2022-10-02T03:29:06.307Z,98987.38
2022-10-02T03:34:09.798Z,98986.13
2022-10-02T03:39:24.574Z,98974.69
2022-10-02T03:44:29.757Z,98965.38
2022-10-02T03:49:32.793Z,98975.16
2022-10-02T03:54:37.538Z,98980.88
2022-10-02T03:59:49.194Z,98986.44
2022-10-02T04:04:57.381Z,98983.53
2022-10-02T04:10:16.866Z,98998.69
2022-10-02T04:15:27.182Z,98999.56
2022-10-02T04:20:37.557Z,98997.16
2022-10-02T04:25:46.256Z,98998.00
2022-10-02T04:30:52.987Z,98999.09
2022-10-02T04:36:06.264Z,98995.75
2022-10-02T04:41:24.112Z,99001.94
2022-10-02T04:46:46.233Z,99006.59
2022-10-02T04:52:02.924Z,99009.63
2022-10-02T04:57:21.134Z,99003.44
2022-10-02T05:02:42.320Z,99002.59
2022-10-02T05:08:05.687Z,99006.22
2022-10-02T05:13:24.536Z,99011.41
2022-10-02T05:18:49.525Z,99010.00
2022-10-02T05:24:07.119Z,98994.09
2022-10-02T05:29:31.533Z,99001.94
2022-10-02T05:34:51.073Z,98994.44
2022-10-02T05:40:00.488Z,99004.81
2022-10-02T05:45:06.668Z,99014.59
2022-10-02T05:50:18.029Z,99007.19
2022-10-02T05:55:27.001Z,99015.97
2022-10-02T06:00:38.628Z,99018.97
2022-10-02T06:05:55.385Z,99022.63
2022-10-02T06:11:04.099Z,99013.63
2022-10-02T06:16:16.152Z,99016.34
2022-10-02T06:21:29.350Z,99011.31
2022-10-02T06:26:41.052Z,99018.88
2022-10-02T06:31:51.165Z,99009.91
2022-10-02T06:37:18.440Z,99020.25
2022-10-02T06:42:36.109Z,99012.00
2022-10-02T06:47:58.547Z,99019.03
2022-10-02T06:53:14.515Z,99009.16
2022-10-02T06:58:30.208Z,99004.81
2022-10-02T07:04:04.344Z,98999.50
2022-10-02T07:09:35.780Z,98997.09
2022-10-02T07:14:55.358Z,98992.28
2022-10-02T07:20:25.522Z,98987.97
2022-10-02T07:25:45.147Z,98995.47
2022-10-02T07:30:56.045Z,99007.00
2022-10-02T07:36:07.562Z,99010.16
2022-10-02T07:41:24.181Z,99020.72
2022-10-02T07:46:40.174Z,99023.53
2022-10-02T07:51:51.303Z,99019.56
2022-10-02T07:56:59.424Z,99008.59
2022-10-02T08:02:12.987Z,99013.25
2022-10-02T08:07:16.123Z,98999.91
2022-10-02T08:12:28.975Z,99013.31
2022-10-02T08:17:36.819Z,99020.97
2022-10-02T08:22:44.014Z,99003.88
2022-10-02T08:27:53.135Z,99004.09
2022-10-02T08:32:56.094Z,99003.44
2022-10-02T08:38:13.901Z,99013.97
2022-10-02T08:44:04.884Z,99006.31
2022-10-02T08:49:40.094Z,98997.91
2022-10-02T08:55:07.369Z,98995.06
2022-10-02T09:00:20.589Z,98995.31
2022-10-02T09:05:54.727Z,98998.22
2022-10-02T09:11:31.601Z,98995.91
2022-10-02T09:16:53.315Z,98995.00
2022-10-02T09:22:01.100Z,98985.63
2022-10-02T09:27:32.633Z,98996.63
2022-10-02T09:33:06.559Z,98977.38
2022-10-02T09:39:06.336Z,98967.84
2022-10-02T09:44:34.135Z,98975.13
2022-10-02T09:50:06.996Z,98983.34
2022-10-02T09:55:52.216Z,98975.22
2022-10-02T10:01:11.383Z,98959.22
2022-10-02T10:06:40.079Z,98970.47
2022-10-02T10:12:06.601Z,98947.16
2022-10-02T10:18:00.513Z,98939.88
2022-10-02T10:23:31.859Z,98932.84
2022-10-02T10:29:13.127Z,98937.47
2022-10-02T10:34:56.737Z,98951.75
2022-10-02T10:40:25.518Z,98956.03
2022-10-02T10:45:44.463Z,98954.84
2022-10-02T10:51:00.499Z,98946.75
2022-10-02T10:56:27.499Z,98942.16
2022-10-02T11:01:40.742Z,98946.97
2022-10-02T11:07:13.866Z,98939.34
2022-10-02T11:12:39.192Z,98928.63
2022-10-02T11:17:56.916Z,98932.09
2022-10-02T11:23:32.127Z,98940.44
2022-10-02T11:29:07.772Z,98934.16
2022-10-02T11:34:50.008Z,98935.06
2022-10-02T11:40:13.365Z,98932.91
2022-10-02T11:45:33.618Z,98938.09
2022-10-02T11:50:51.476Z,98939.03
2022-10-02T11:56:11.762Z,98943.06
2022-10-02T12:01:26.456Z,98943.28
2022-10-02T12:06:54.330Z,98937.34
2022-10-02T12:12:12.121Z,98937.59
2022-10-02T12:17:42.436Z,98952.47
2022-10-02T12:23:12.491Z,98948.84
2022-10-02T12:28:27.683Z,98945.22
2022-10-02T12:33:44.211Z,98934.69
2022-10-02T12:38:59.988Z,98913.81
2022-10-02T12:44:51.474Z,98915.44
2022-10-02T12:50:11.248Z,98919.81
2022-10-02T12:55:46.601Z,98920.28
2022-10-02T13:01:15.297Z,98904.13
2022-10-02T13:06:56.913Z,98894.97
2022-10-02T13:12:12.630Z,98887.78
2022-10-02T13:17:27.091Z,98893.75
2022-10-02T13:22:41.490Z,98900.53
2022-10-02T13:27:53.429Z,98890.28
2022-10-02T13:33:27.520Z,98904.31
2022-10-02T13:38:51.392Z,98902.41
2022-10-02T13:44:07.145Z,98899.84
2022-10-02T13:49:19.160Z,98910.06
2022-10-02T13:54:48.219Z,98904.47
2022-10-02T14:00:03.497Z,98896.59
2022-10-02T14:05:42.556Z,98887.91
2022-10-02T14:11:00.075Z,98885.38
2022-10-02T14:16:17.582Z,98883.81
2022-10-02T14:21:31.138Z,98881.56
2022-10-02T14:26:55.146Z,98889.41
2022-10-02T14:32:31.925Z,98888.25
2022-10-02T14:38:22.507Z,98904.53
2022-10-02T14:44:02.876Z,98904.97
2022-10-02T14:49:32.562Z,98898.59
2022-10-02T14:55:07.775Z,98911.59
2022-10-02T15:00:18.185Z,98925.25
2022-10-02T15:05:42.417Z,98930.34
2022-10-02T15:10:49.232Z,98930.22
2022-10-02T15:16:11.123Z,98933.94
2022-10-02T15:21:26.884Z,98929.25
2022-10-02T15:26:49.475Z,98937.00
2022-10-02T15:32:28.599Z,98947.44
2022-10-02T15:37:43.720Z,98953.13
2022-10-02T15:42:56.153Z,98948.31
2022-10-02T15:48:26.756Z,98957.91
2022-10-02T15:53:55.601Z,98963.88
2022-10-02T15:59:15.847Z,98957.16
2022-10-02T16:04:32.221Z,98964.41
2022-10-02T16:09:46.736Z,98965.63
2022-10-02T16:15:00.939Z,98972.97
2022-10-02T16:20:27.094Z,98972.56
2022-10-02T16:25:52.485Z,98986.56
2022-10-02T16:31:20.468Z,98987.34
2022-10-02T16:36:38.264Z,98990.53
2022-10-02T16:41:59.806Z,98995.94
2022-10-02T16:47:11.866Z,98992.78
2022-10-02T16:52:23.666Z,99008.78
2022-10-02T16:57:49.570Z,99017.25
2022-10-02T17:02:57.252Z,99027.06
2022-10-02T17:08:08.587Z,99035.38
2022-10-02T17:13:25.291Z,99039.31
2022-10-02T17:18:38.472Z,99041.66
2022-10-02T17:23:54.065Z,99052.22
2022-10-02T17:29:03.135Z,99056.22
2022-10-02T17:34:19.999Z,99074.13
2022-10-02T17:39:37.039Z,99073.44
2022-10-02T17:44:50.204Z,99084.69
2022-10-02T17:50:07.354Z,99069.78
2022-10-02T17:55:57.727Z,99080.53
2022-10-02T18:01:13.071Z,99091.00
2022-10-02T18:06:26.512Z,99088.91
2022-10-02T18:11:49.861Z,99108.28
2022-10-02T18:17:07.962Z,99114.22
2022-10-02T18:22:29.688Z,99122.81
2022-10-02T18:27:49.966Z,99142.06
2022-10-02T18:33:29.044Z,99150.88
2022-10-02T18:38:44.430Z,99152.69
2022-10-02T18:44:01.009Z,99150.63
2022-10-02T18:49:30.643Z,99156.97
2022-10-02T18:54:45.279Z,99162.81
2022-10-02T19:00:04.570Z,99174.66
2022-10-02T19:05:26.219Z,99183.66
2022-10-02T19:10:40.937Z,99199.38
2022-10-02T19:15:47.900Z,99192.28
2022-10-02T19:21:06.629Z,99201.72
2022-10-02T19:26:19.297Z,99209.97
2022-10-02T19:31:27.900Z,99208.00
2022-10-02T19:36:38.216Z,99216.75
2022-10-02T19:41:43.917Z,99216.19
2022-10-02T19:46:52.943Z,99223.50
2022-10-02T19:51:56.999Z,99219.81
2022-10-02T19:57:04.307Z,99235.59
2022-10-02T20:02:16.453Z,99233.03
2022-10-02T20:07:21.907Z,99244.75
2022-10-02T20:12:29.071Z,99251.34
2022-10-02T20:17:33.556Z,99242.50
2022-10-02T20:22:41.889Z,99260.53
2022-10-02T20:27:50.469Z,99256.03
2022-10-02T20:33:00.869Z,99252.94
2022-10-02T20:38:07.846Z,99265.13
2022-10-02T20:43:17.796Z,99283.38
2022-10-02T20:49:14.010Z,99287.56
2022-10-02T20:54:33.516Z,99296.28
2022-10-02T21:00:08.972Z,99303.09
2022-10-02T21:05:48.693Z,99312.97
2022-10-02T21:11:14.299Z,99327.06
2022-10-02T21:16:50.319Z,99326.28
2022-10-02T21:22:30.958Z,99331.47
2022-10-02T21:28:13.470Z,99333.81
2022-10-02T21:33:22.026Z,99339.91
2022-10-02T21:38:58.412Z,99357.66
2022-10-02T21:44:50.435Z,99350.78
2022-10-02T21:50:37.194Z,99351.66
2022-10-02T21:56:08.359Z,99356.31
2022-10-02T22:01:51.791Z,99351.47
2022-10-02T22:07:10.713Z,99356.16
2022-10-02T22:12:27.206Z,99361.22
2022-10-02T22:17:35.725Z,99369.53
2022-10-02T22:23:08.721Z,99375.56
2022-10-02T22:28:29.227Z,99366.56
2022-10-02T22:33:46.068Z,99370.88
2022-10-02T22:38:53.081Z,99370.38
2022-10-02T22:44:01.759Z,99373.59
2022-10-02T22:49:16.695Z,99375.63
2022-10-02T22:54:27.228Z,99373.38
2022-10-02T22:59:39.292Z,99375.19
2022-10-02T23:04:51.766Z,99373.19
2022-10-02T23:10:01.244Z,99374.41
2022-10-02T23:15:23.948Z,99383.69
2022-10-02T23:20:32.275Z,99396.22
2022-10-02T23:25:43.005Z,99393.22
2022-10-02T23:30:51.714Z,99393.22
2022-10-02T23:36:02.043Z,99406.13
2022-10-02T23:41:27.977Z,99399.66
2022-10-02T23:46:42.279Z,99408.78
2022-10-02T23:51:56.357Z,99406.72
2022-10-02T23:57:29.528Z,99418.63
